Time;durP1;ratioP1;P1;durP2;ratioP2;P2;SDS_P1;SDS_P2;PMS_P1;PMS_P2;Temp;Humidity;BMP_temperature;BMP_pressure;BME280_temperature;BME280_humidity;BME280_pressure;Samples;Min_cycle;Max_cycle;Signal;HPM_P1;HPM_P2
2021/04/03 00:00:41;;;;;;;9.40;1.65;;;36.80;8.00;;;;;;5099056;28;20080;-57
2021/04/03 00:03:09;;;;;;;11.05;2.85;;;36.70;8.10;;;;;;5095650;28;20153;-59
2021/04/03 00:05:36;;;;;;;11.98;2.35;;;36.60;9.60;;;;;;5095227;28;20080;-59
2021/04/03 00:08:04;;;;;;;6.68;2.00;;;36.50;8.90;;;;;;5094074;28;20072;-58
2021/04/03 00:10:35;;;;;;;19.52;2.55;;;36.40;9.10;;;;;;5094369;28;20468;-61
2021/04/03 00:13:02;;;;;;;15.98;2.20;;;36.40;9.10;;;;;;5094130;28;20417;-59
2021/04/03 00:15:29;;;;;;;15.68;1.80;;;36.30;9.20;;;;;;5093742;28;20104;-61
2021/04/03 00:17:56;;;;;;;14.20;2.17;;;36.30;8.90;;;;;;5096272;28;20130;-58
2021/04/03 00:20:26;;;;;;;6.63;1.75;;;36.30;9.60;;;;;;5094016;28;20151;-58
2021/04/03 00:22:52;;;;;;;11.07;2.17;;;36.20;9.40;;;;;;5093756;28;21110;-58
2021/04/03 00:25:19;;;;;;;6.07;2.35;;;36.20;9.00;;;;;;5097355;28;20164;-59
2021/04/03 00:27:45;;;;;;;5.80;2.03;;;36.20;9.40;;;;;;5077157;28;20100;-61
2021/04/03 00:30:19;;;;;;;10.15;1.80;;;36.20;8.80;;;;;;5095014;28;20088;-58
2021/04/03 00:32:49;;;;;;;9.27;2.25;;;36.10;8.90;;;;;;5088966;28;20096;-59
2021/04/03 00:35:20;;;;;;;7.57;1.83;;;36.10;9.30;;;;;;5093241;28;20082;-60
2021/04/03 00:37:47;;;;;;;8.88;1.92;;;36.00;9.30;;;;;;5096109;28;20076;-59
2021/04/03 00:40:20;;;;;;;7.10;2.10;;;36.00;9.10;;;;;;5096749;28;20091;-60
2021/04/03 00:42:48;;;;;;;8.57;1.75;;;36.00;9.20;;;;;;5095066;28;20076;-58
2021/04/03 00:45:16;;;;;;;5.78;2.25;;;36.20;9.10;;;;;;5096742;28;20084;-59
2021/04/03 00:47:43;;;;;;;8.77;1.90;;;36.20;9.70;;;;;;5090544;28;20860;-58
2021/04/03 00:50:14;;;;;;;7.70;2.05;;;36.30;9.30;;;;;;5093432;28;20525;-60
2021/04/03 00:52:41;;;;;;;11.63;2.10;;;36.20;9.40;;;;;;5094927;28;20103;-61
2021/04/03 00:55:10;;;;;;;10.88;1.75;;;36.30;8.90;;;;;;5094446;28;20163;-59
2021/04/03 00:57:37;;;;;;;7.30;2.30;;;36.20;9.70;;;;;;5092693;28;20073;-59
2021/04/03 01:00:06;;;;;;;16.75;2.70;;;36.20;9.30;;;;;;5096866;28;20116;-60
2021/04/03 01:02:33;;;;;;;7.18;1.88;;;36.20;10.80;;;;;;5093239;28;20069;-59
2021/04/03 01:05:01;;;;;;;9.80;2.40;;;36.30;9.40;;;;;;5098809;28;20085;-61
2021/04/03 01:07:27;;;;;;;10.60;2.05;;;36.30;10.00;;;;;;5093882;28;20117;-62
2021/04/03 01:09:54;;;;;;;5.88;2.50;;;36.80;9.90;;;;;;5093857;28;20068;-59
2021/04/03 01:12:47;;;;;;;10.77;2.20;;;37.50;9.80;;;;;;5091360;28;20121;-60
2021/04/03 01:15:24;;;;;;;11.63;2.53;;;38.40;9.70;;;;;;5082522;28;20168;-59
2021/04/03 01:18:06;;;;;;;6.85;2.20;;;38.60;8.90;;;;;;5092748;28;20119;-60
2021/04/03 01:20:42;;;;;;;6.88;2.08;;;38.30;9.50;;;;;;5092433;28;20535;-60
2021/04/03 01:23:39;;;;;;;7.60;2.00;;;37.60;9.10;;;;;;5093466;28;20409;-60
2021/04/03 01:26:22;;;;;;;;;;;36.90;9.70;;;;;;5091550;28;20080;-61
2021/04/03 01:29:10;;;;;;;11.27;1.83;;;36.20;11.80;;;;;;5097692;28;19967;-60
2021/04/03 01:31:38;;;;;;;26.02;3.35;;;35.60;11.20;;;;;;5091947;28;20084;-60
2021/04/03 01:34:08;;;;;;;25.05;3.25;;;35.10;12.60;;;;;;5078975;28;20162;-59
2021/04/03 01:36:40;;;;;;;25.08;3.25;;;34.80;12.80;;;;;;5099790;28;20072;-60
2021/04/03 01:39:13;;;;;;;24.92;3.00;;;34.40;13.90;;;;;;5094677;28;20544;-61
2021/04/03 01:41:45;;;;;;;12.32;2.13;;;34.10;14.20;;;;;;5096816;28;20158;-60
2021/04/03 01:44:16;;;;;;;143.85;10.00;;;33.70;12.90;;;;;;5095395;28;20080;-61
2021/04/03 01:46:48;;;;;;;49.13;5.57;;;33.50;13.80;;;;;;5078052;28;20122;-60
2021/04/03 01:49:16;;;;;;;26.08;3.70;;;33.10;15.70;;;;;;5093074;28;20526;-60
2021/04/03 01:51:48;;;;;;;17.67;3.58;;;33.00;13.50;;;;;;5091830;28;20103;-59
2021/04/03 01:54:16;;;;;;;26.73;3.42;;;32.80;13.30;;;;;;5093771;28;20073;-60
2021/04/03 01:56:44;;;;;;;28.10;3.35;;;32.10;18.80;;;;;;5097325;28;20116;-59
2021/04/03 01:59:12;;;;;;;25.15;3.53;;;32.30;14.00;;;;;;5097370;28;20195;-60
2021/04/03 02:01:40;;;;;;;29.95;4.25;;;32.00;13.60;;;;;;5088571;28;20072;-60
2021/04/03 02:04:09;;;;;;;47.17;6.25;;;31.80;14.30;;;;;;5091939;28;20076;-61
2021/04/03 02:06:39;;;;;;;33.38;4.78;;;31.60;14.50;;;;;;5092895;28;20127;-62
2021/04/03 02:09:08;;;;;;;22.38;5.22;;;31.40;14.60;;;;;;5092264;28;20533;-62
2021/04/03 02:11:36;;;;;;;22.67;6.90;;;31.20;14.60;;;;;;5090064;28;20112;-62
2021/04/03 02:14:05;;;;;;;21.02;4.85;;;31.00;14.70;;;;;;5090982;28;20130;-62
2021/04/03 02:16:37;;;;;;;17.25;3.60;;;30.90;14.40;;;;;;5094170;28;20419;-63
2021/04/03 02:19:11;;;;;;;17.55;4.10;;;30.90;14.20;;;;;;5095343;28;20581;-59
2021/04/03 02:21:42;;;;;;;16.48;4.47;;;30.90;22.20;;;;;;5092660;28;20129;-63
2021/04/03 02:24:10;;;;;;;17.90;4.20;;;30.80;14.50;;;;;;5092312;28;20182;-62
2021/04/03 02:26:38;;;;;;;18.20;4.30;;;30.70;15.40;;;;;;5092774;28;20160;-59
2021/04/03 02:29:06;;;;;;;14.70;4.43;;;30.80;16.20;;;;;;5061185;28;20096;-61
2021/04/03 02:31:36;;;;;;;18.95;5.20;;;30.70;15.80;;;;;;5080542;28;20084;-60
2021/04/03 02:34:03;;;;;;;25.42;5.45;;;30.70;16.30;;;;;;5092806;28;20071;-62
2021/04/03 02:36:30;;;;;;;28.15;6.15;;;30.60;16.50;;;;;;5096369;28;20114;-59
2021/04/03 02:38:57;;;;;;;40.03;7.05;;;30.50;16.80;;;;;;5094180;28;20068;-57
2021/04/03 02:41:40;;;;;;;24.23;5.63;;;30.20;25.90;;;;;;5079780;28;20134;-58
2021/04/03 02:44:35;;;;;;;32.13;4.85;;;30.40;16.90;;;;;;5095935;28;20080;-57
2021/04/03 02:47:27;;;;;;;31.52;6.30;;;30.40;16.50;;;;;;5077456;28;20119;-61
2021/04/03 02:50:01;;;;;;;27.60;6.35;;;30.30;16.00;;;;;;5082963;28;20080;-61
2021/04/03 02:52:29;;;;;;;26.20;4.78;;;30.20;16.30;;;;;;5079676;28;20096;-60
2021/04/03 02:54:57;;;;;;;30.80;5.38;;;30.20;16.00;;;;;;5095966;28;20545;-60
2021/04/03 02:57:25;;;;;;;20.73;4.40;;;30.20;15.90;;;;;;5098393;28;20150;-61
2021/04/03 02:59:54;;;;;;;24.30;4.53;;;30.10;15.80;;;;;;5078254;28;20096;-61
2021/04/03 03:02:23;;;;;;;25.83;4.65;;;30.10;15.00;;;;;;5095383;28;20111;-59
2021/04/03 03:04:51;;;;;;;30.65;4.90;;;30.10;16.00;;;;;;5099050;28;20068;-56
2021/04/03 03:07:18;;;;;;;34.40;5.22;;;30.00;15.70;;;;;;5100711;28;20409;-60
2021/04/03 03:09:48;;;;;;;31.35;4.43;;;30.00;15.20;;;;;;5095294;28;20525;-57
2021/04/03 03:12:17;;;;;;;29.45;4.97;;;30.00;15.40;;;;;;5091049;28;20216;-60
2021/04/03 03:14:47;;;;;;;32.88;5.20;;;30.00;14.80;;;;;;5096224;28;20072;-57
2021/04/03 03:17:14;;;;;;;36.88;5.75;;;29.90;14.70;;;;;;5094860;28;20159;-60
2021/04/03 03:19:41;;;;;;;41.70;7.18;;;29.80;15.00;;;;;;5075926;28;20069;-57
2021/04/03 03:22:09;;;;;;;33.45;6.28;;;30.00;18.60;;;;;;5098988;28;20068;-58
2021/04/03 03:24:37;;;;;;;45.75;6.10;;;30.10;20.00;;;;;;5097880;28;20437;-61
2021/04/03 03:27:05;;;;;;;49.35;6.55;;;29.70;14.90;;;;;;5093935;28;20112;-58
2021/04/03 03:29:34;;;;;;;44.88;6.00;;;29.70;15.60;;;;;;5091031;28;20433;-57
2021/04/03 03:32:02;;;;;;;44.25;6.47;;;29.60;15.60;;;;;;5096259;28;20100;-64
2021/04/03 03:34:29;;;;;;;60.03;7.68;;;29.50;15.70;;;;;;5098038;28;20081;-61
2021/04/03 03:36:57;;;;;;;64.43;7.63;;;29.40;15.80;;;;;;5075943;28;20137;-58
2021/04/03 03:39:25;;;;;;;47.45;6.80;;;29.20;20.60;;;;;;5101182;28;20072;-60
2021/04/03 03:41:58;;;;;;;52.50;6.70;;;29.30;15.70;;;;;;5097100;28;20517;-58
2021/04/03 03:44:26;;;;;;;67.30;9.20;;;29.20;16.10;;;;;;5076182;28;20080;-61
2021/04/03 03:46:52;;;;;;;64.28;11.27;;;29.20;16.20;;;;;;5094074;28;20075;-59
2021/04/03 03:49:19;;;;;;;58.78;8.52;;;29.10;16.20;;;;;;5098391;28;20079;-60
2021/04/03 03:51:45;;;;;;;50.58;16.63;;;29.00;19.20;;;;;;5100315;28;20237;-58
2021/04/03 03:54:12;;;;;;;50.75;7.85;;;29.10;23.10;;;;;;5096848;28;20160;-58
2021/04/03 03:56:39;;;;;;;47.67;12.57;;;29.00;16.10;;;;;;5093074;28;20087;-60
2021/04/03 03:59:05;;;;;;;59.42;12.75;;;29.00;16.10;;;;;;5095455;28;20083;-59
2021/04/03 04:01:32;;;;;;;39.40;9.55;;;29.00;16.10;;;;;;5095746;28;20073;-59
2021/04/03 04:03:58;;;;;;;60.88;16.65;;;28.90;16.00;;;;;;5097605;28;20080;-60
2021/04/03 04:06:25;;;;;;;45.17;9.85;;;28.90;16.10;;;;;;5076896;28;20081;-61
2021/04/03 04:08:51;;;;;;;27.40;6.93;;;28.80;16.00;;;;;;5062384;28;20088;-57
2021/04/03 04:11:18;;;;;;;46.17;9.88;;;28.70;16.10;;;;;;5094331;28;20112;-64
2021/04/03 04:13:44;;;;;;;30.13;7.13;;;28.70;15.80;;;;;;5094393;28;20485;-66
2021/04/03 04:16:11;;;;;;;34.35;6.03;;;28.70;16.20;;;;;;5095415;28;20499;-66
2021/04/03 04:18:38;;;;;;;40.00;7.93;;;28.60;16.10;;;;;;5092376;28;20076;-66
2021/04/03 04:21:04;;;;;;;33.08;7.07;;;28.60;16.10;;;;;;5076769;28;20077;-65
2021/04/03 04:23:31;;;;;;;41.05;8.82;;;28.50;15.70;;;;;;5080352;28;20080;-64
2021/04/03 04:25:57;;;;;;;36.38;8.50;;;28.40;16.10;;;;;;5099093;28;20079;-63
2021/04/03 04:28:24;;;;;;;29.35;11.27;;;28.40;16.20;;;;;;5099695;28;20064;-65
2021/04/03 04:30:51;;;;;;;39.58;8.43;;;28.40;16.20;;;;;;5079941;28;20521;-65
2021/04/03 04:33:17;;;;;;;41.80;7.93;;;28.30;16.30;;;;;;5094077;28;20441;-63
2021/04/03 04:35:50;;;;;;;25.45;6.43;;;28.20;16.60;;;;;;5101512;28;20650;-65
2021/04/03 04:38:20;;;;;;;20.98;6.75;;;28.10;15.90;;;;;;5080353;28;20118;-65
2021/04/03 04:40:47;;;;;;;29.08;8.00;;;28.10;16.80;;;;;;5081309;28;20584;-64
2021/04/03 04:43:13;;;;;;;40.67;9.15;;;28.00;16.70;;;;;;5096762;28;20079;-65
2021/04/03 04:45:40;;;;;;;27.20;7.38;;;27.90;16.50;;;;;;5100858;28;20072;-64
2021/04/03 04:48:07;;;;;;;16.67;5.50;;;27.80;17.10;;;;;;5098360;28;20092;-65
2021/04/03 04:50:34;;;;;;;33.42;5.97;;;27.70;17.00;;;;;;5077138;28;20104;-64
2021/04/03 04:53:01;;;;;;;27.90;5.57;;;27.60;17.20;;;;;;5081298;28;20491;-64
2021/04/03 04:55:28;;;;;;;15.55;4.50;;;27.50;17.90;;;;;;5096058;28;20065;-65
2021/04/03 04:57:58;;;;;;;28.20;4.95;;;27.40;17.80;;;;;;5093908;28;20604;-66
2021/04/03 05:00:24;;;;;;;22.42;5.63;;;27.30;18.70;;;;;;5093464;28;20068;-65
2021/04/03 05:02:51;;;;;;;31.25;5.28;;;27.20;18.50;;;;;;5094441;28;20072;-65
2021/04/03 05:05:18;;;;;;;23.90;6.85;;;27.00;18.20;;;;;;5060512;28;21495;-63
2021/04/03 05:07:44;;;;;;;27.30;8.52;;;26.80;18.20;;;;;;5092279;28;20076;-64
2021/04/03 05:10:12;;;;;;;26.35;9.27;;;26.80;18.60;;;;;;5094104;28;20084;-65
2021/04/03 05:12:39;;;;;;;38.90;11.85;;;26.40;18.30;;;;;;5077369;28;20548;-65
2021/04/03 05:15:06;;;;;;;26.92;8.98;;;26.50;19.30;;;;;;5096504;28;20080;-65
2021/04/03 05:17:34;;;;;;;22.95;7.68;;;26.50;19.10;;;;;;5093930;28;20109;-67
2021/04/03 05:20:02;;;;;;;24.88;8.07;;;26.40;19.10;;;;;;5077358;28;20104;-65
2021/04/03 05:22:28;;;;;;;31.33;7.78;;;26.30;19.20;;;;;;5084565;28;20068;-64
2021/04/03 05:24:55;;;;;;;171.95;58.78;;;26.30;20.50;;;;;;5098657;28;20257;-64
2021/04/03 05:27:21;;;;;;;85.97;27.88;;;26.30;18.90;;;;;;5094510;28;20090;-66
2021/04/03 05:29:48;;;;;;;47.65;15.25;;;26.20;19.00;;;;;;5091986;28;20073;-64
2021/04/03 05:32:14;;;;;;;27.40;9.73;;;26.10;18.90;;;;;;5094703;28;20475;-63
2021/04/03 05:34:41;;;;;;;22.08;9.98;;;26.00;18.80;;;;;;5089617;28;20083;-64
2021/04/03 05:37:07;;;;;;;36.58;11.60;;;26.10;18.70;;;;;;5094505;28;20080;-64
2021/04/03 05:39:34;;;;;;;32.13;12.40;;;26.00;18.60;;;;;;5077164;28;20069;-64
2021/04/03 05:42:01;;;;;;;37.20;14.00;;;26.00;18.60;;;;;;5090070;28;20080;-63
2021/04/03 05:44:29;;;;;;;31.95;15.70;;;26.00;18.60;;;;;;5094087;28;20122;-63
2021/04/03 05:46:56;;;;;;;30.50;11.73;;;25.90;18.70;;;;;;5096212;28;20091;-63
2021/04/03 05:49:23;;;;;;;37.13;11.43;;;25.90;19.00;;;;;;5073860;28;20073;-64
2021/04/03 05:51:50;;;;;;;46.00;12.48;;;25.90;19.10;;;;;;5075839;28;20116;-63
2021/04/03 05:54:17;;;;;;;36.88;13.10;;;25.80;19.10;;;;;;5095675;28;20076;-64
2021/04/03 05:56:44;;;;;;;51.80;22.13;;;25.80;19.70;;;;;;5095647;28;20076;-64
2021/04/03 05:59:10;;;;;;;49.25;20.73;;;25.70;20.10;;;;;;5092325;28;20076;-64
2021/04/03 06:01:40;;;;;;;61.75;25.10;;;25.60;20.10;;;;;;5089572;28;20068;-64
2021/04/03 06:04:07;;;;;;;47.83;21.40;;;25.60;20.50;;;;;;5074473;28;20072;-64
2021/04/03 06:06:34;;;;;;;51.22;20.45;;;25.50;20.30;;;;;;5075127;28;20075;-63
2021/04/03 06:09:01;;;;;;;37.90;16.35;;;25.40;20.30;;;;;;5094783;28;20073;-63
2021/04/03 06:11:27;;;;;;;38.15;16.10;;;25.30;20.40;;;;;;5088955;28;20116;-64
2021/04/03 06:13:57;;;;;;;38.38;13.70;;;25.20;20.50;;;;;;5091835;28;20072;-63
2021/04/03 06:16:33;;;;;;;35.75;15.20;;;25.10;20.70;;;;;;5096265;28;20104;-64
2021/04/03 06:19:27;;;;;;;32.83;12.88;;;25.00;20.80;;;;;;5096740;28;20171;-63
2021/04/03 06:21:54;;;;;;;35.15;13.70;;;25.00;21.00;;;;;;5089752;28;20073;-64
2021/04/03 06:24:32;;;;;;;41.47;13.52;;;24.80;21.30;;;;;;5090363;28;20072;-63
2021/04/03 06:27:11;;;;;;;31.75;12.30;;;24.80;21.40;;;;;;5096985;28;20737;-64
2021/04/03 06:29:39;;;;;;;39.42;11.90;;;24.80;21.20;;;;;;5095215;28;20077;-64
2021/04/03 06:32:07;;;;;;;31.75;10.02;;;;;;;;;;5088302;28;20093;-63
2021/04/03 06:34:44;;;;;;;22.95;9.73;;;25.70;40.00;;;;;;5090224;28;20068;-63
2021/04/03 06:37:11;;;;;;;22.90;8.73;;;24.70;20.70;;;;;;5092100;28;20525;-63
2021/04/03 06:39:57;;;;;;;31.30;8.40;;;24.50;20.30;;;;;;5089398;28;20072;-64
2021/04/03 06:42:56;;;;;;;23.42;7.70;;;24.50;20.60;;;;;;5090351;28;20082;-64
2021/04/03 06:45:31;;;;;;;26.52;7.28;;;24.50;20.00;;;;;;5073666;28;20536;-63
2021/04/03 06:48:03;;;;;;;21.77;6.97;;;24.50;19.80;;;;;;5089622;28;20564;-64
2021/04/03 06:50:32;;;;;;;26.58;8.50;;;24.60;19.20;;;;;;5092148;28;20536;-63
2021/04/03 06:53:03;;;;;;;22.73;7.60;;;24.70;18.80;;;;;;5076131;28;20108;-64
2021/04/03 06:55:31;;;;;;;25.67;7.18;;;24.70;19.20;;;;;;5092164;28;20119;-64
2021/04/03 06:58:00;;;;;;;29.48;7.80;;;24.70;19.50;;;;;;5093336;28;20088;-64
2021/04/03 07:00:27;;;;;;;18.95;5.07;;;24.70;19.20;;;;;;5072011;28;20068;-65
2021/04/03 07:03:03;;;;;;;18.25;4.85;;;24.70;18.60;;;;;;5089597;28;20596;-64
2021/04/03 07:05:35;;;;;;;22.48;5.03;;;24.70;18.60;;;;;;5092348;28;20080;-64
2021/04/03 07:08:06;;;;;;;18.02;4.55;;;24.70;18.50;;;;;;5090538;28;20076;-64
2021/04/03 07:10:38;;;;;;;23.35;4.28;;;24.70;18.60;;;;;;5073013;28;20120;-64
2021/04/03 07:13:06;;;;;;;17.50;3.70;;;24.60;18.30;;;;;;5092223;28;20568;-64
2021/04/03 07:15:33;;;;;;;18.77;4.35;;;24.60;18.90;;;;;;5091753;28;20520;-64
2021/04/03 07:18:00;;;;;;;18.83;4.43;;;24.70;18.20;;;;;;5091091;28;20072;-64
2021/04/03 07:20:29;;;;;;;18.98;4.88;;;24.70;18.20;;;;;;5090515;28;20084;-64
2021/04/03 07:23:17;;;;;;;20.52;4.88;;;24.70;18.30;;;;;;5095010;28;20122;-64
2021/04/03 07:25:45;;;;;;;19.63;4.80;;;24.70;19.00;;;;;;5093522;28;24030;-64
2021/04/03 07:28:15;;;;;;;20.35;4.85;;;24.70;19.20;;;;;;5091890;28;20084;-63
2021/04/03 07:30:45;;;;;;;18.55;4.50;;;24.60;19.50;;;;;;5091995;28;20514;-64
2021/04/03 07:33:23;;;;;;;19.10;4.72;;;24.50;19.60;;;;;;5075695;28;20080;-63
2021/04/03 07:36:07;;;;;;;14.48;4.20;;;24.40;19.70;;;;;;5096695;28;20529;-64
2021/04/03 07:38:38;;;;;;;17.98;4.20;;;24.30;20.20;;;;;;5091988;28;20517;-64
2021/04/03 07:41:25;;;;;;;18.00;4.45;;;24.20;20.30;;;;;;5073014;28;20104;-64
2021/04/03 07:43:52;;;;;;;19.00;4.00;;;24.10;20.50;;;;;;5092699;28;20429;-64
2021/04/03 07:46:23;;;;;;;18.17;3.67;;;24.10;20.80;;;;;;5075991;28;20077;-64
2021/04/03 07:48:54;;;;;;;19.77;3.72;;;24.00;20.90;;;;;;5092744;28;20160;-64
2021/04/03 07:51:24;;;;;;;14.15;3.60;;;23.90;20.90;;;;;;5070840;28;20085;-63
2021/04/03 07:53:53;;;;;;;14.48;3.75;;;23.80;21.10;;;;;;5093923;28;20076;-64
2021/04/03 07:56:25;;;;;;;17.30;4.40;;;23.80;21.20;;;;;;5080556;28;20545;-64
2021/04/03 07:58:57;;;;;;;15.23;3.40;;;23.70;22.10;;;;;;5093174;28;20525;-64
2021/04/03 08:01:25;;;;;;;12.45;2.90;;;23.60;22.00;;;;;;5089327;28;20110;-63
2021/04/03 08:03:57;;;;;;;17.77;2.85;;;23.60;21.70;;;;;;5078727;28;20065;-64
2021/04/03 08:06:33;;;;;;;10.90;2.78;;;23.50;22.50;;;;;;5095026;28;20584;-65
2021/04/03 08:09:01;;;;;;;17.27;3.10;;;23.50;22.60;;;;;;5094626;28;20099;-64
2021/04/03 08:11:28;;;;;;;15.98;3.20;;;23.40;22.20;;;;;;5094401;28;20199;-63
2021/04/03 08:13:57;;;;;;;11.50;3.35;;;23.40;22.40;;;;;;5095113;28;20084;-63
2021/04/03 08:16:27;;;;;;;14.95;3.28;;;23.30;22.80;;;;;;5095061;28;20165;-63
2021/04/03 08:18:56;;;;;;;12.45;3.00;;;23.30;23.30;;;;;;5079739;28;20440;-64
2021/04/03 08:21:24;;;;;;;26.00;3.53;;;23.20;22.70;;;;;;5096184;28;20164;-64
2021/04/03 08:23:53;;;;;;;14.40;3.55;;;23.10;23.10;;;;;;5076021;28;20510;-63
2021/04/03 08:26:21;;;;;;;13.20;3.20;;;23.00;23.30;;;;;;5090091;28;20073;-64
2021/04/03 08:28:48;;;;;;;10.75;3.30;;;22.90;23.60;;;;;;5093117;28;20108;-64
2021/04/03 08:31:29;;;;;;;16.13;3.67;;;22.90;23.10;;;;;;5092079;28;20085;-63
2021/04/03 08:33:58;;;;;;;16.27;3.80;;;22.90;23.80;;;;;;5093720;28;20434;-63
2021/04/03 08:36:27;;;;;;;15.90;3.92;;;22.90;24.00;;;;;;5076076;28;20164;-63
2021/04/03 08:38:55;;;;;;;14.10;3.83;;;22.80;24.60;;;;;;5091104;28;20115;-62
2021/04/03 08:41:27;;;;;;;18.02;4.13;;;22.80;24.90;;;;;;5095897;28;20072;-63
2021/04/03 08:43:55;;;;;;;12.18;3.15;;;22.80;25.10;;;;;;5090579;28;20523;-62
2021/04/03 08:46:23;;;;;;;13.40;3.35;;;22.70;25.10;;;;;;5094505;28;20156;-63
2021/04/03 08:48:58;;;;;;;14.45;3.60;;;22.70;25.20;;;;;;5079338;28;20072;-64
2021/04/03 08:51:26;;;;;;;19.25;4.50;;;22.60;25.10;;;;;;5095779;28;20095;-57
2021/04/03 08:53:55;;;;;;;17.38;4.03;;;22.60;25.90;;;;;;5090281;28;20081;-53
2021/04/03 08:56:30;;;;;;;15.23;3.38;;;22.60;25.10;;;;;;5097315;28;20487;-51
2021/04/03 08:58:57;;;;;;;12.15;3.28;;;;;;;;;;5093905;28;20076;-54
2021/04/03 09:01:29;;;;;;;15.98;3.22;;;22.60;25.00;;;;;;5094830;28;20083;-56
2021/04/03 09:04:01;;;;;;;14.23;3.00;;;22.60;25.60;;;;;;5093928;28;20187;-54
2021/04/03 09:06:49;;;;;;;10.02;2.42;;;22.60;26.50;;;;;;5090671;28;20077;-52
2021/04/03 09:09:17;;;;;;;10.05;3.25;;;;;;;;;;5093983;28;20440;-52
2021/04/03 09:12:03;;;;;;;11.02;2.65;;;22.60;25.40;;;;;;5093675;28;20118;-51
2021/04/03 09:14:37;;;;;;;11.90;2.97;;;22.60;26.00;;;;;;5100411;28;20080;-51
2021/04/03 09:17:19;;;;;;;14.07;2.92;;;22.50;26.30;;;;;;5091975;28;20079;-50
2021/04/03 09:19:46;;;;;;;8.60;2.90;;;22.70;26.10;;;;;;5093916;28;20159;-53
2021/04/03 09:22:15;;;;;;;11.30;2.78;;;22.40;26.40;;;;;;5090241;28;20075;-55
2021/04/03 09:24:47;;;;;;;10.82;2.92;;;22.40;26.80;;;;;;5095419;28;20537;-54
2021/04/03 09:27:19;;;;;;;14.10;3.47;;;22.30;26.10;;;;;;5093812;28;20083;-56
2021/04/03 09:29:55;;;;;;;15.98;3.25;;;22.10;25.90;;;;;;5095578;28;20072;-57
2021/04/03 09:32:22;;;;;;;13.43;3.28;;;21.90;29.10;;;;;;5096041;28;20212;-55
2021/04/03 09:34:49;;;;;;;17.55;2.90;;;22.30;32.80;;;;;;5091545;28;20624;-53
2021/04/03 09:37:18;;;;;;;14.45;3.03;;;22.00;28.10;;;;;;5097171;28;20500;-56
2021/04/03 09:39:52;;;;;;;16.33;4.03;;;21.70;31.90;;;;;;5096927;28;20083;-53
2021/04/03 09:42:21;;;;;;;32.70;15.38;;;22.00;26.70;;;;;;5078225;28;20086;-55
2021/04/03 09:44:49;;;;;;;25.58;12.65;;;22.00;26.20;;;;;;5096527;28;20163;-55
2021/04/03 09:47:16;;;;;;;21.45;7.13;;;22.00;26.10;;;;;;5097871;28;21649;-53
2021/04/03 09:49:44;;;;;;;21.83;5.95;;;21.90;26.30;;;;;;5095341;28;20079;-55
2021/04/03 09:52:13;;;;;;;16.00;4.00;;;21.90;27.30;;;;;;5095863;28;20135;-55
2021/04/03 09:54:41;;;;;;;16.10;3.45;;;21.90;27.70;;;;;;5095468;28;20073;-54
2021/04/03 09:57:09;;;;;;;13.32;3.13;;;21.90;27.80;;;;;;5093869;28;20069;-55
2021/04/03 09:59:36;;;;;;;26.33;3.78;;;21.70;27.70;;;;;;5099007;28;20069;-54
2021/04/03 10:02:03;;;;;;;19.75;4.43;;;21.70;28.10;;;;;;5095959;28;20076;-53
2021/04/03 10:04:31;;;;;;;29.17;6.38;;;21.60;27.50;;;;;;5092755;28;20548;-53
2021/04/03 10:06:58;;;;;;;58.95;8.82;;;21.60;27.10;;;;;;5091618;28;20128;-57
2021/04/03 10:09:25;;;;;;;49.95;8.88;;;21.50;27.20;;;;;;5093589;28;20075;-51
2021/04/03 10:11:55;;;;;;;50.17;10.20;;;21.60;27.90;;;;;;5098409;28;20590;-50
2021/04/03 10:14:23;;;;;;;51.85;8.73;;;21.50;28.20;;;;;;5074905;28;20108;-50
2021/04/03 10:16:50;;;;;;;50.55;10.10;;;21.40;28.00;;;;;;5098991;28;20076;-56
2021/04/03 10:19:17;;;;;;;56.95;12.18;;;21.40;28.00;;;;;;5095407;28;20068;-55
2021/04/03 10:21:43;;;;;;;57.63;12.10;;;21.30;28.40;;;;;;5091537;28;20126;-56
2021/04/03 10:24:10;;;;;;;60.40;12.68;;;21.30;28.30;;;;;;5095531;28;20069;-54
2021/04/03 10:26:37;;;;;;;88.90;16.48;;;21.20;28.70;;;;;;5096237;28;21466;-51
2021/04/03 10:29:04;;;;;;;114.45;21.70;;;21.10;29.80;;;;;;5092300;28;20079;-56
2021/04/03 10:31:31;;;;;;;119.95;24.25;;;21.10;30.10;;;;;;5094793;28;20092;-52
2021/04/03 10:33:58;;;;;;;115.22;26.02;;;21.10;31.70;;;;;;5099227;28;20088;-52
2021/04/03 10:36:24;;;;;;;116.38;25.20;;;21.10;32.90;;;;;;5096856;28;20107;-54
2021/04/03 10:38:51;;;;;;;100.15;23.60;;;21.10;35.90;;;;;;5094739;28;20412;-52
2021/04/03 10:41:18;;;;;;;86.90;22.95;;;20.90;38.80;;;;;;5093449;28;20467;-55
2021/04/03 10:43:44;;;;;;;86.82;22.05;;;21.00;39.50;;;;;;5093814;28;20215;-57
2021/04/03 10:46:11;;;;;;;111.40;24.20;;;20.90;40.20;;;;;;5095798;28;20074;-54
2021/04/03 10:48:38;;;;;;;91.05;22.17;;;20.90;40.50;;;;;;5092916;28;20154;-55
2021/04/03 10:51:05;;;;;;;98.25;23.25;;;20.80;40.30;;;;;;5094413;28;20134;-51
2021/04/03 10:53:32;;;;;;;89.00;23.17;;;21.10;42.30;;;;;;5092662;28;20084;-52
2021/04/03 10:55:59;;;;;;;66.90;19.55;;;20.70;42.60;;;;;;5093295;28;20076;-55
2021/04/03 10:58:26;;;;;;;45.83;13.07;;;20.80;48.00;;;;;;5098801;28;20090;-53
2021/04/03 11:00:52;;;;;;;40.80;10.32;;;20.70;45.40;;;;;;5090783;28;20577;-54
2021/04/03 11:03:19;;;;;;;44.67;10.30;;;20.70;46.40;;;;;;5097598;28;20574;-54
2021/04/03 11:05:46;;;;;;;37.97;11.07;;;20.20;49.20;;;;;;5071736;28;20481;-52
2021/04/03 11:08:12;;;;;;;42.20;10.57;;;20.70;63.40;;;;;;5074315;28;20084;-52
2021/04/03 11:10:39;;;;;;;41.70;10.63;;;20.30;47.70;;;;;;5076858;28;20140;-52
2021/04/03 11:13:05;;;;;;;48.53;10.88;;;20.40;56.00;;;;;;5095865;28;20096;-51
2021/04/03 11:15:32;;;;;;;48.22;10.63;;;20.10;48.30;;;;;;5096397;28;20068;-55
2021/04/03 11:17:59;;;;;;;43.50;9.93;;;20.10;48.60;;;;;;5076889;28;20084;-54
2021/04/03 11:20:25;;;;;;;42.80;9.55;;;20.10;48.80;;;;;;5094057;28;20533;-51
2021/04/03 11:22:52;;;;;;;41.00;9.88;;;20.20;48.90;;;;;;5095563;28;20072;-54
2021/04/03 11:25:18;;;;;;;36.85;9.18;;;20.10;48.10;;;;;;5093470;28;20075;-53
2021/04/03 11:27:45;;;;;;;31.80;8.30;;;20.20;48.90;;;;;;5094017;28;20071;-51
2021/04/03 11:30:15;;;;;;;34.67;9.57;;;20.20;48.40;;;;;;5099602;28;20084;-52
2021/04/03 11:32:47;;;;;;;37.78;9.80;;;20.10;48.30;;;;;;5096988;28;20093;-52
2021/04/03 11:35:15;;;;;;;39.67;9.05;;;20.10;49.10;;;;;;5094515;28;20513;-52
2021/04/03 11:37:43;;;;;;;33.45;9.25;;;20.00;48.40;;;;;;5097353;28;20076;-52
2021/04/03 11:40:10;;;;;;;40.45;8.80;;;20.00;48.80;;;;;;5091230;28;20073;-55
2021/04/03 11:42:37;;;;;;;36.08;8.57;;;20.00;48.40;;;;;;5093455;28;20068;-54
2021/04/03 11:45:09;;;;;;;37.20;8.32;;;19.90;48.20;;;;;;5098048;28;20512;-55
2021/04/03 11:47:36;;;;;;;30.73;9.20;;;20.00;48.00;;;;;;5083020;28;20215;-52
2021/04/03 11:50:05;;;;;;;32.63;7.95;;;19.90;47.50;;;;;;5095674;28;20087;-54
2021/04/03 11:52:33;;;;;;;31.65;7.80;;;19.80;48.10;;;;;;5094745;28;20116;-52
2021/04/03 11:55:00;;;;;;;33.85;7.70;;;19.80;48.00;;;;;;5079676;28;20548;-52
2021/04/03 11:57:27;;;;;;;27.70;7.47;;;19.80;47.50;;;;;;5096078;28;20085;-56
2021/04/03 11:59:54;;;;;;;33.20;7.95;;;19.70;47.60;;;;;;5094239;28;20104;-50
2021/04/03 12:02:20;;;;;;;34.22;7.68;;;19.60;47.70;;;;;;5094687;28;20121;-54
2021/04/03 12:04:47;;;;;;;38.88;8.43;;;19.60;48.30;;;;;;5096141;28;20112;-52
2021/04/03 12:07:14;;;;;;;39.67;8.25;;;19.60;48.50;;;;;;5095691;28;20510;-54
2021/04/03 12:09:40;;;;;;;;;;;19.50;49.00;;;;;;5094514;28;20077;-51
2021/04/03 12:12:07;;;;;;;37.58;8.43;;;19.60;49.10;;;;;;5093053;28;19988;-52
2021/04/03 12:14:34;;;;;;;28.75;8.43;;;19.60;48.70;;;;;;5098333;28;20095;-50
2021/04/03 12:17:01;;;;;;;34.00;8.70;;;19.60;48.90;;;;;;5097713;28;20068;-55
2021/04/03 12:19:28;;;;;;;38.10;9.30;;;19.50;48.40;;;;;;5097884;28;20083;-54
2021/04/03 12:21:55;;;;;;;35.80;9.98;;;19.60;48.90;;;;;;5096367;28;20416;-53
2021/04/03 12:24:21;;;;;;;32.03;8.77;;;19.60;49.00;;;;;;5096379;28;20072;-50
2021/04/03 12:26:48;;;;;;;29.55;8.80;;;19.50;48.20;;;;;;5095599;28;20075;-50
2021/04/03 12:29:14;;;;;;;32.63;8.82;;;19.40;48.70;;;;;;5093315;28;20166;-50
2021/04/03 12:31:40;;;;;;;;;;;19.40;49.30;;;;;;5092968;28;20146;-51
2021/04/03 12:34:07;;;;;;;34.53;9.13;;;19.30;49.10;;;;;;5093620;28;19956;-53
2021/04/03 12:36:33;;;;;;;37.17;9.93;;;19.20;49.70;;;;;;5094533;28;20080;-56
2021/04/03 12:39:00;;;;;;;40.50;10.50;;;19.20;49.20;;;;;;5093265;28;20552;-52
2021/04/03 12:41:27;;;;;;;37.75;10.35;;;19.10;49.40;;;;;;5095826;28;20096;-54
2021/04/03 12:43:53;;;;;;;45.13;10.80;;;19.00;50.30;;;;;;5097306;28;20208;-52
2021/04/03 12:46:20;;;;;;;;;;;19.00;50.40;;;;;;5092551;28;20083;-56
2021/04/03 12:48:46;;;;;;;41.58;11.27;;;19.00;51.20;;;;;;5093522;28;19967;-54